Miguel Pereira, Brazil
Current Conditions -  °F | °C
As of 3:00 PM on Friday 28 Nov 2014 (Local Time) from SBGL Reporting Station
Light Rain Light Rain  
Wind Chill: 75°   Ceiling: 1500
Heat Index: 75°   Visibility: 4mi
Dew Point: 68°   Wind: 6mph
Humidity: 78%   Direction: 30°NNE
Pressure: 29.97"   Gusts: NA
Location:  22.45°S, 43.47°W
Report Text: SBGL 281700Z 03005KT 7000 -RA BKN015 BKN050 24/20 Q1015
Loading
Personal Weather Stations






























Interactive Weather Map New forecast layout! Learn more

10-Day Weather Forecast

Advertisements
Track Severe Weather on mobile